Sainte-Dorothee, Canada
Current Conditions -  °F | °C
As of 11:00 PM on Tuesday 27 Jan 2015 (Local Time) from CYUL Reporting Station
Light Snow Light Snow  
Wind Chill: -9°   Ceiling: 2500
Heat Index:   Visibility: 5mi
Dew Point: -2°   Wind: 16mph
Humidity: 62%   Direction: 20°NNE
Pressure: 30.03"   Gusts: NA
Location:  45.53°N, 73.82°W
Report Text: CYUL 280400Z 02014KT 5SM -SN BKN025 OVC056 M13/M19 A3003 RMK SC6SC2 SLP173
Loading
Personal Weather Stations






























Interactive Weather Map New forecast layout! Learn more

10-Day Weather Forecast

Advertisements
Track Severe Weather on mobile